Decoded Metar for KMHL ( in ) (IATA:) | Meteo·Mobile Aviation Weather
aviador You're here:

KMHL Decoded Metar

in
Report Time2019-01-20 20:35:00
UTC Time2019-01-20 20:55:02
Flight Rules vfr VFR
Wind010° at 08 kt
W.Decomp.*RWY 36: 7.9 kt HW 1.4 kt RCW
RWY 09: 1.4 kt HW 7.9 kt LCW
W.Rank010° ranks 31
Current wind is above 010° avg. (7.1)
Visibility9999 m
Phenomena:N/A
Clouds:Overcast 045 Hf
Expected CloudBase > 1,200 ft AGL from Temp-Dew spread
Ceiling4,500 ft
Temp-10°C
Dew Point-13°C (79% RH)
AAT-16.1°C
QNH1028 hPa
Raw Report
KMHL 202035Z AUTO 01008KT 10SM OVC045 M10/M13 A3035 RMK AO2=

Extra information for KMHL:More info

Social comments